Time;durP1;ratioP1;P1;durP2;ratioP2;P2;SDS_P1;SDS_P2;PMS_P1;PMS_P2;Temp;Humidity;BMP_temperature;BMP_pressure;BME280_temperature;BME280_humidity;BME280_pressure;Samples;Min_cycle;Max_cycle;Signal;HPM_P1;HPM_P2
2022/12/25 00:01:14;;;;;;;73.35;26.95;;;4.30;99.90;;;;;;5013734;28;20043;-33
2022/12/25 00:03:40;;;;;;;89.05;28.20;;;4.40;99.90;;;;;;5014884;28;20038;-34
2022/12/25 00:06:06;;;;;;;86.28;26.58;;;4.40;99.90;;;;;;5013638;28;20081;-34
2022/12/25 00:08:33;;;;;;;78.90;27.10;;;4.50;99.90;;;;;;5014701;28;20081;-34
2022/12/25 00:11:02;;;;;;;85.50;26.90;;;4.50;99.90;;;;;;5012065;28;20034;-34
2022/12/25 00:13:28;;;;;;;77.10;25.67;;;4.60;99.90;;;;;;4997007;28;20034;-34
2022/12/25 00:15:54;;;;;;;80.68;27.38;;;4.60;99.90;;;;;;5008484;28;20129;-34
2022/12/25 00:18:21;;;;;;;90.78;28.27;;;4.70;99.90;;;;;;4996883;28;20041;-34
2022/12/25 00:21:04;;;;;;;80.22;26.92;;;4.80;99.90;;;;;;5024333;28;20038;-33
2022/12/25 00:23:31;;;;;;;76.97;27.25;;;4.80;99.90;;;;;;5017709;28;20038;-34
2022/12/25 00:25:57;;;;;;;78.28;27.17;;;4.90;99.90;;;;;;5030883;28;20092;-34
2022/12/25 00:28:24;;;;;;;72.22;24.33;;;4.90;99.90;;;;;;5017511;28;20045;-34
2022/12/25 00:30:50;;;;;;;71.90;23.85;;;4.90;99.90;;;;;;5017865;28;20052;-34
2022/12/25 00:33:16;;;;;;;73.50;26.95;;;4.80;99.90;;;;;;5017276;28;20034;-34
2022/12/25 00:35:42;;;;;;;91.63;27.77;;;4.80;99.90;;;;;;5017042;28;20509;-34
2022/12/25 00:38:08;;;;;;;82.15;26.48;;;4.90;99.90;;;;;;5020505;28;20097;-34
2022/12/25 00:40:40;;;;;;;73.75;25.83;;;4.90;99.90;;;;;;5038160;28;20045;-34
2022/12/25 00:43:06;;;;;;;79.20;25.92;;;4.90;99.90;;;;;;5008354;28;20053;-34
2022/12/25 00:45:31;;;;;;;77.88;26.77;;;4.90;99.90;;;;;;5016727;28;20109;-34
2022/12/25 00:47:57;;;;;;;64.47;24.65;;;5.00;99.90;;;;;;5016396;28;20042;-34
2022/12/25 00:50:23;;;;;;;81.22;26.65;;;5.00;99.90;;;;;;5016596;28;20038;-34
2022/12/25 00:52:49;;;;;;;67.20;24.17;;;5.00;99.90;;;;;;5016302;28;20034;-34
2022/12/25 00:55:15;;;;;;;71.03;24.52;;;5.00;99.90;;;;;;5021100;28;20041;-33
2022/12/25 00:57:41;;;;;;;71.65;25.85;;;5.00;99.90;;;;;;5016421;28;20034;-34
2022/12/25 01:00:07;;;;;;;71.97;25.25;;;5.10;99.90;;;;;;5033076;28;20505;-34
2022/12/25 01:02:33;;;;;;;86.53;27.48;;;5.20;99.90;;;;;;5016043;28;20034;-34
2022/12/25 01:04:59;;;;;;;72.90;26.25;;;5.20;99.90;;;;;;5016484;28;20061;-34
2022/12/25 01:07:25;;;;;;;85.05;27.23;;;5.20;99.90;;;;;;5017386;28;20056;-34
2022/12/25 01:12:39;;;;;;;57.33;20.35;;;5.10;99.90;;;;;;5017542;28;20065;-34
2022/12/25 01:15:07;;;;;;;71.18;23.80;;;5.00;99.90;;;;;;5016988;28;20045;-34
2022/12/25 01:17:33;;;;;;;53.53;20.63;;;5.00;99.90;;;;;;5016467;28;20048;-34
2022/12/25 01:20:00;;;;;;;53.08;20.58;;;4.90;99.90;;;;;;5013843;28;20045;-34
2022/12/25 01:22:26;;;;;;;54.97;21.98;;;4.90;99.90;;;;;;5016087;28;20391;-34
2022/12/25 01:24:52;;;;;;;60.10;21.17;;;4.90;99.90;;;;;;5015953;28;20042;-34
2022/12/25 01:27:21;;;;;;;59.85;20.92;;;4.90;99.90;;;;;;5017655;28;20137;-34
2022/12/25 01:29:47;;;;;;;67.72;23.00;;;4.90;99.90;;;;;;4998999;28;20053;-34
2022/12/25 01:32:12;;;;;;;70.97;26.00;;;4.90;99.90;;;;;;5016200;28;20407;-34
2022/12/25 01:34:38;;;;;;;67.57;24.60;;;4.90;99.90;;;;;;5015898;28;20034;-34
2022/12/25 01:37:04;;;;;;;73.55;25.55;;;5.00;99.90;;;;;;5017289;28;20340;-34
2022/12/25 01:39:31;;;;;;;72.95;24.45;;;5.10;99.90;;;;;;4998885;28;20103;-34
2022/12/25 01:41:57;;;;;;;62.88;24.77;;;5.20;99.90;;;;;;5015412;28;20288;-34
2022/12/25 01:44:35;;;;;;;64.13;24.25;;;5.20;99.90;;;;;;5014907;28;20038;-35
2022/12/25 01:47:05;;;;;;;72.00;25.77;;;5.20;99.90;;;;;;5014832;28;20045;-35
2022/12/25 01:49:36;;;;;;;72.15;25.85;;;5.30;99.90;;;;;;5009550;28;20038;-35
2022/12/25 01:52:13;;;;;;;68.90;25.75;;;5.30;99.90;;;;;;4995054;28;20046;-34
2022/12/25 01:55:02;;;;;;;74.38;25.55;;;5.40;99.90;;;;;;4996222;28;20100;-34
2022/12/25 01:57:31;;;;;;;67.45;24.90;;;5.40;99.90;;;;;;5014690;28;20042;-35
2022/12/25 01:59:58;;;;;;;75.82;24.77;;;5.50;99.90;;;;;;5015975;28;20042;-34
2022/12/25 02:02:25;;;;;;;71.00;24.58;;;5.50;99.90;;;;;;5010171;28;20045;-35
2022/12/25 02:05:19;;;;;;;69.90;25.48;;;5.60;99.90;;;;;;5014603;28;20042;-34
2022/12/25 02:07:47;;;;;;;73.55;25.65;;;5.60;99.90;;;;;;5014389;28;20052;-35
2022/12/25 02:10:13;;;;;;;62.30;24.08;;;5.70;99.90;;;;;;4995126;28;20042;-35
2022/12/25 02:12:41;;;;;;;65.05;25.20;;;5.80;99.90;;;;;;5009995;28;20037;-34
2022/12/25 02:15:19;;;;;;;72.13;24.48;;;5.80;99.90;;;;;;5017580;28;20049;-35
2022/12/25 02:18:07;;;;;;;66.28;24.60;;;5.90;99.90;;;;;;5014600;28;20137;-35
2022/12/25 02:20:41;;;;;;;82.30;25.30;;;5.90;99.90;;;;;;5015722;28;20041;-35
2022/12/25 02:23:22;;;;;;;69.93;24.98;;;6.00;99.90;;;;;;5014598;28;20114;-35
2022/12/25 02:26:25;;;;;;;63.55;23.60;;;6.00;99.90;;;;;;5014679;28;20503;-35
2022/12/25 02:28:59;;;;;;;68.78;23.58;;;6.10;99.90;;;;;;5015820;28;20105;-35
2022/12/25 02:31:36;;;;;;;64.40;24.77;;;6.10;99.90;;;;;;5029466;28;20042;-35
2022/12/25 02:34:14;;;;;;;72.20;24.02;;;6.20;99.90;;;;;;5014865;28;20107;-34
2022/12/25 02:36:49;;;;;;;69.80;25.80;;;6.30;99.90;;;;;;5014104;28;20069;-35
2022/12/25 02:39:58;;;;;;;68.25;24.42;;;6.30;99.90;;;;;;5014307;28;20398;-35
2022/12/25 03:07:42;;;;;;;62.70;23.13;;;6.70;99.90;;;;;;5015463;28;20042;-34
2022/12/25 03:13:11;;;;;;;64.95;23.83;;;6.80;99.90;;;;;;5014964;28;20125;-34
2022/12/25 03:18:25;;;;;;;59.88;23.30;;;6.90;99.90;;;;;;5014440;28;20050;-35
2022/12/25 03:31:10;;;;;;;62.28;23.25;;;6.90;99.90;;;;;;5014875;28;20053;-35
2022/12/25 03:32:04;;;;;;;63.53;23.65;;;7.00;99.90;;;;;;5014751;28;20439;-36
2022/12/25 04:36:13;;;;;;;59.92;23.50;;;7.80;99.90;;;;;;5013053;28;20110;-36
2022/12/25 04:38:39;;;;;;;59.65;22.80;;;7.80;99.90;;;;;;5005287;28;20516;-35
2022/12/25 04:41:09;;;;;;;63.78;23.30;;;7.80;99.90;;;;;;5011118;28;20140;-35
2022/12/25 04:43:35;;;;;;;52.47;22.77;;;7.80;99.90;;;;;;5013060;28;20415;-35
2022/12/25 04:46:02;;;;;;;53.78;23.33;;;7.80;99.90;;;;;;5012971;28;20042;-36
2022/12/25 04:48:30;;;;;;;49.50;22.15;;;7.80;99.90;;;;;;5026524;28;20042;-35
2022/12/25 04:50:56;;;;;;;51.53;22.60;;;8.00;99.90;;;;;;5010209;28;20045;-35
2022/12/25 04:53:22;;;;;;;51.53;23.15;;;7.90;99.90;;;;;;5012948;28;20495;-35
2022/12/25 04:55:48;;;;;;;54.30;22.33;;;7.90;99.90;;;;;;5014343;28;20077;-36
2022/12/25 04:58:14;;;;;;;52.72;22.55;;;8.00;99.90;;;;;;5013748;28;20042;-35
2022/12/25 05:00:40;;;;;;;50.00;23.02;;;7.90;99.90;;;;;;5013964;28;20048;-36
2022/12/25 05:03:06;;;;;;;49.40;22.77;;;8.00;99.90;;;;;;5003612;28;20365;-35
2022/12/25 05:05:32;;;;;;;54.22;22.25;;;8.00;99.90;;;;;;5015689;28;20479;-35
2022/12/25 05:07:58;;;;;;;63.10;26.20;;;8.00;99.90;;;;;;5016618;28;20045;-36
2022/12/25 05:10:23;;;;;;;54.38;23.08;;;8.10;99.90;;;;;;5019889;28;20036;-35
2022/12/25 05:12:49;;;;;;;54.63;22.20;;;8.00;99.90;;;;;;5009779;28;20041;-36
2022/12/25 05:15:15;;;;;;;54.35;22.38;;;8.10;99.90;;;;;;5016635;28;20510;-36
2022/12/25 05:17:41;;;;;;;54.85;22.13;;;8.10;99.90;;;;;;5016678;28;20121;-35
2022/12/25 05:20:07;;;;;;;62.05;25.30;;;8.10;99.90;;;;;;5017020;28;20038;-35
2022/12/25 05:22:33;;;;;;;50.50;22.10;;;8.10;99.90;;;;;;5016037;28;20184;-35
2022/12/25 05:24:59;;;;;;;45.30;22.08;;;8.10;99.90;;;;;;5016317;28;20426;-36
2022/12/25 05:27:25;;;;;;;47.95;22.75;;;8.20;99.90;;;;;;5016134;28;20508;-35
2022/12/25 05:29:51;;;;;;;49.95;22.88;;;8.20;99.90;;;;;;5015849;28;20112;-35
2022/12/25 05:32:17;;;;;;;58.90;23.33;;;8.20;99.90;;;;;;5016646;28;20522;-36
2022/12/25 05:34:42;;;;;;;51.53;22.13;;;8.20;99.90;;;;;;5015800;28;20041;-35
2022/12/25 05:37:08;;;;;;;48.55;22.42;;;8.20;99.90;;;;;;5013841;28;20121;-37
2022/12/25 05:39:34;;;;;;;51.85;22.40;;;8.20;99.90;;;;;;5010198;28;20056;-36
2022/12/25 05:42:00;;;;;;;50.80;24.05;;;8.20;99.90;;;;;;5014804;28;20034;-35
2022/12/25 05:44:26;;;;;;;49.13;22.42;;;8.20;99.90;;;;;;5011515;28;20498;-35
2022/12/25 05:46:52;;;;;;;50.42;22.45;;;8.30;99.90;;;;;;5013793;28;20049;-35
2022/12/25 05:49:18;;;;;;;45.75;22.15;;;8.30;99.90;;;;;;5015155;28;20409;-35
2022/12/25 05:51:43;;;;;;;46.05;23.10;;;8.30;99.90;;;;;;5013974;28;20036;-34
2022/12/25 05:54:09;;;;;;;48.00;22.00;;;8.30;99.90;;;;;;5014317;28;20037;-35
2022/12/25 05:56:36;;;;;;;43.70;19.67;;;8.30;99.90;;;;;;5014628;28;20041;-35
2022/12/25 05:59:02;;;;;;;43.95;22.27;;;8.30;99.90;;;;;;5015586;28;20068;-35
2022/12/25 06:01:28;;;;;;;48.80;22.30;;;8.30;99.90;;;;;;5012159;28;20034;-35
2022/12/25 06:03:54;;;;;;;48.53;22.63;;;8.40;99.90;;;;;;5015494;28;20065;-35
2022/12/25 06:06:20;;;;;;;48.95;22.25;;;8.30;99.90;;;;;;5002995;28;20042;-36
2022/12/25 06:08:46;;;;;;;52.20;21.50;;;8.30;99.90;;;;;;5010783;28;20479;-34
2022/12/25 06:11:13;;;;;;;42.72;22.25;;;8.40;99.90;;;;;;5015680;28;20030;-35
2022/12/25 06:13:39;;;;;;;40.45;21.10;;;8.40;99.90;;;;;;5016100;28;20026;-36
2022/12/25 06:16:09;;;;;;;52.03;22.92;;;8.40;99.90;;;;;;5014450;28;20402;-37
2022/12/25 06:18:41;;;;;;;45.40;20.35;;;8.40;99.90;;;;;;5006736;28;20042;-37
2022/12/25 06:21:09;;;;;;;42.50;21.52;;;8.40;99.90;;;;;;5008086;28;20045;-36
2022/12/25 06:23:37;;;;;;;43.28;20.92;;;8.40;99.90;;;;;;5010550;28;20045;-37
2022/12/25 06:26:07;;;;;;;44.22;21.15;;;8.40;99.90;;;;;;5012493;28;20133;-37
2022/12/25 06:28:34;;;;;;;44.70;20.33;;;8.40;99.90;;;;;;5026397;28;20069;-36
2022/12/25 06:31:10;;;;;;;38.67;19.60;;;8.40;99.90;;;;;;5009499;28;20038;-36
2022/12/25 06:33:36;;;;;;;38.85;19.58;;;8.40;99.90;;;;;;5015941;28;20422;-36
2022/12/25 06:36:11;;;;;;;41.40;19.00;;;8.40;99.90;;;;;;5011280;28;20030;-37
2022/12/25 06:38:37;;;;;;;38.63;19.40;;;8.40;99.90;;;;;;5013864;28;20443;-36
2022/12/25 06:41:16;;;;;;;31.73;17.58;;;8.40;99.90;;;;;;5024996;28;20050;-36
2022/12/25 06:43:42;;;;;;;38.53;17.83;;;8.40;99.90;;;;;;5011704;28;20080;-36
2022/12/25 06:46:11;;;;;;;34.35;16.55;;;8.40;99.90;;;;;;5013892;28;20387;-36
2022/12/25 06:48:38;;;;;;;31.65;16.35;;;8.40;99.90;;;;;;5014327;28;20166;-36
2022/12/25 06:51:06;;;;;;;30.17;16.48;;;8.30;99.90;;;;;;5011902;28;20046;-37
2022/12/25 06:53:32;;;;;;;28.85;16.52;;;8.30;99.90;;;;;;5014075;28;20445;-36
2022/12/25 06:56:07;;;;;;;34.13;16.63;;;8.30;99.90;;;;;;5015404;28;20117;-36
2022/12/25 06:58:33;;;;;;;30.63;15.82;;;8.30;99.90;;;;;;5018490;28;20038;-37
2022/12/25 07:00:59;;;;;;;29.75;15.57;;;8.20;99.90;;;;;;5015598;28;20169;-36
2022/12/25 07:03:28;;;;;;;29.30;15.32;;;8.20;99.90;;;;;;5014166;28;20073;-35
2022/12/25 07:05:55;;;;;;;31.15;16.50;;;8.20;99.90;;;;;;5016797;28;20058;-37
2022/12/25 07:08:21;;;;;;;27.60;15.30;;;8.20;99.90;;;;;;5008741;28;20037;-36
2022/12/25 07:10:47;;;;;;;29.98;14.65;;;8.10;99.90;;;;;;5028375;28;20034;-36
2022/12/25 07:13:12;;;;;;;27.83;14.95;;;8.10;99.90;;;;;;5008539;28;20040;-36
2022/12/25 07:15:38;;;;;;;27.67;14.35;;;8.10;99.90;;;;;;5013473;28;20072;-36
2022/12/25 07:18:07;;;;;;;29.30;15.15;;;8.10;99.90;;;;;;4997271;28;20030;-37
2022/12/25 07:20:35;;;;;;;28.25;15.30;;;8.10;99.90;;;;;;5014070;28;20034;-35
2022/12/25 07:23:01;;;;;;;24.90;14.55;;;8.00;99.90;;;;;;5013912;28;20038;-35
2022/12/25 07:25:28;;;;;;;28.75;13.70;;;8.00;99.90;;;;;;5006974;28;20037;-35
2022/12/25 07:27:54;;;;;;;26.75;14.90;;;8.00;99.90;;;;;;5006075;28;20045;-35
2022/12/25 07:30:20;;;;;;;25.63;13.60;;;8.00;99.90;;;;;;5007510;28;20038;-35
2022/12/25 07:32:46;;;;;;;23.08;13.73;;;8.00;99.90;;;;;;5011966;28;20033;-34
2022/12/25 07:35:13;;;;;;;26.65;13.15;;;8.10;99.90;;;;;;4997702;28;20112;-36
2022/12/25 07:37:39;;;;;;;22.35;12.98;;;8.10;99.90;;;;;;5009530;28;20046;-36
2022/12/25 07:40:06;;;;;;;25.45;14.07;;;8.10;99.90;;;;;;5012669;28;20487;-35
2022/12/25 07:42:32;;;;;;;26.27;14.50;;;8.10;99.90;;;;;;5013539;28;20129;-35
2022/12/25 07:44:57;;;;;;;25.25;13.70;;;8.10;99.90;;;;;;5014209;28;20081;-35
2022/12/25 07:47:24;;;;;;;23.55;13.35;;;8.10;99.90;;;;;;5012921;28;20056;-35
2022/12/25 07:49:52;;;;;;;22.63;13.35;;;8.10;99.90;;;;;;5012075;28;20042;-36
2022/12/25 07:52:28;;;;;;;25.55;13.40;;;8.10;99.90;;;;;;5013950;28;20048;-35
2022/12/25 07:54:54;;;;;;;21.70;11.95;;;8.10;99.90;;;;;;5010785;28;20169;-36
2022/12/25 07:57:58;;;;;;;23.73;11.85;;;8.10;99.90;;;;;;5014074;28;20053;-36
2022/12/25 08:00:50;;;;;;;21.65;11.70;;;8.10;99.90;;;;;;5011881;28;20030;-36
2022/12/25 08:03:17;;;;;;;22.80;13.50;;;8.10;99.90;;;;;;5002533;28;20542;-36
2022/12/25 08:05:44;;;;;;;22.70;12.95;;;8.10;99.90;;;;;;5008477;28;20432;-36
2022/12/25 08:08:13;;;;;;;20.83;12.18;;;8.10;99.90;;;;;;5001622;28;20042;-36
2022/12/25 08:10:45;;;;;;;26.45;12.73;;;8.10;99.90;;;;;;5010405;28;20052;-39
2022/12/25 08:13:11;;;;;;;19.92;11.32;;;8.10;99.90;;;;;;4995477;28;21058;-38
2022/12/25 08:15:37;;;;;;;23.27;11.70;;;8.20;99.90;;;;;;5000760;28;20046;-38
2022/12/25 08:18:03;;;;;;;21.90;11.32;;;8.20;99.90;;;;;;5014512;28;20061;-38
2022/12/25 08:20:28;;;;;;;22.60;12.07;;;8.20;99.90;;;;;;5013732;28;20386;-38
2022/12/25 08:22:54;;;;;;;22.20;12.07;;;8.20;99.90;;;;;;4992751;28;20061;-37
2022/12/25 08:25:20;;;;;;;20.58;10.90;;;8.20;99.90;;;;;;5006685;28;20049;-38
2022/12/25 08:27:46;;;;;;;18.50;12.23;;;8.20;99.90;;;;;;5009343;28;20141;-40
2022/12/25 08:30:12;;;;;;;23.95;12.80;;;8.20;99.90;;;;;;5004126;28;20471;-38
2022/12/25 08:32:38;;;;;;;21.60;12.35;;;8.20;99.90;;;;;;5012789;28;20041;-38
2022/12/25 08:35:04;;;;;;;23.80;11.68;;;8.20;99.90;;;;;;5002657;28;20045;-38
2022/12/25 08:37:30;;;;;;;23.67;12.98;;;8.20;99.90;;;;;;4999816;28;20092;-38
2022/12/25 08:39:56;;;;;;;21.50;11.95;;;8.20;99.90;;;;;;5010471;28;20045;-38
2022/12/25 08:42:22;;;;;;;21.95;12.05;;;8.20;99.90;;;;;;5025224;28;20076;-38
2022/12/25 08:44:48;;;;;;;23.45;12.50;;;8.20;99.90;;;;;;5004837;28;20073;-38
2022/12/25 08:47:14;;;;;;;19.38;11.65;;;8.30;99.90;;;;;;5015500;28;20084;-41
2022/12/25 08:49:40;;;;;;;20.65;11.20;;;8.30;99.90;;;;;;5008160;28;20574;-38
2022/12/25 08:52:06;;;;;;;24.48;11.32;;;8.30;99.90;;;;;;5017860;28;20503;-39
2022/12/25 08:54:35;;;;;;;19.45;11.25;;;8.30;99.90;;;;;;5016038;28;20046;-38
2022/12/25 08:57:04;;;;;;;21.08;10.70;;;8.30;99.90;;;;;;5012679;28;20046;-38
2022/12/25 08:59:30;;;;;;;22.83;12.77;;;8.40;99.90;;;;;;4993281;28;20054;-39
2022/12/25 09:01:56;;;;;;;22.55;11.95;;;8.40;99.90;;;;;;5015730;28;20044;-39
2022/12/25 09:04:22;;;;;;;17.30;10.68;;;8.40;99.90;;;;;;5008744;28;20033;-39
2022/12/25 09:06:49;;;;;;;18.13;10.68;;;8.50;99.90;;;;;;5016660;28;20128;-38
2022/12/25 09:09:15;;;;;;;20.45;11.20;;;8.50;99.90;;;;;;5004807;28;20121;-38
2022/12/25 09:11:41;;;;;;;19.08;10.48;;;8.50;99.90;;;;;;4997445;28;20122;-40
2022/12/25 09:14:08;;;;;;;17.02;10.98;;;8.60;99.90;;;;;;5004770;28;20042;-37
2022/12/25 09:16:35;;;;;;;16.85;10.55;;;8.60;99.90;;;;;;5032165;28;20495;-40
2022/12/25 09:19:01;;;;;;;17.02;10.32;;;8.70;99.90;;;;;;5017664;28;20499;-38
2022/12/25 09:21:27;;;;;;;18.17;10.18;;;8.70;99.90;;;;;;5004929;28;20065;-40
2022/12/25 09:23:52;;;;;;;18.70;10.65;;;8.70;99.90;;;;;;5018719;28;20046;-39
2022/12/25 09:26:19;;;;;;;21.50;10.80;;;8.80;99.90;;;;;;5010091;28;20088;-38
2022/12/25 09:28:45;;;;;;;19.45;11.45;;;8.80;99.90;;;;;;5012253;28;20030;-38
2022/12/25 09:31:11;;;;;;;19.13;10.52;;;8.80;99.90;;;;;;5007674;28;20061;-38
2022/12/25 09:33:37;;;;;;;17.88;10.68;;;8.80;99.90;;;;;;5005198;28;20038;-37
2022/12/25 09:36:07;;;;;;;16.27;10.73;;;8.80;99.90;;;;;;5012974;28;20113;-37
2022/12/25 09:38:34;;;;;;;16.92;10.70;;;8.90;99.90;;;;;;5009826;28;20041;-38
2022/12/25 09:41:18;;;;;;;15.98;10.07;;;8.90;99.90;;;;;;5015807;28;20038;-38
2022/12/25 09:43:55;;;;;;;16.77;10.40;;;8.90;99.90;;;;;;5009256;28;20065;-38
2022/12/25 09:46:25;;;;;;;17.67;11.20;;;8.90;99.90;;;;;;5012062;28;20069;-38
2022/12/25 09:49:05;;;;;;;22.02;11.75;;;8.90;99.90;;;;;;4999828;28;20042;-37
2022/12/25 09:51:35;;;;;;;17.60;10.77;;;9.00;99.90;;;;;;5014875;28;20026;-37
2022/12/25 09:54:17;;;;;;;20.42;11.85;;;9.00;99.90;;;;;;5007152;28;20038;-37
2022/12/25 09:56:43;;;;;;;18.13;10.60;;;9.00;99.90;;;;;;5016653;28;20065;-38
2022/12/25 09:59:22;;;;;;;16.35;10.80;;;9.10;99.90;;;;;;5015182;28;20089;-38
2022/12/25 10:02:26;;;;;;;16.95;10.45;;;9.10;99.90;;;;;;5011370;28;20461;-38
2022/12/25 10:05:10;;;;;;;15.85;10.18;;;9.10;99.90;;;;;;5010458;28;20072;-39
2022/12/25 10:07:54;;;;;;;15.80;10.75;;;9.10;99.90;;;;;;5015123;28;20057;-39
2022/12/25 10:10:40;;;;;;;17.13;10.80;;;9.10;99.90;;;;;;5016469;28;20488;-38
2022/12/25 10:13:31;;;;;;;22.10;11.50;;;9.10;99.90;;;;;;5006202;28;20037;-39
2022/12/25 10:16:31;;;;;;;16.60;10.43;;;9.10;99.90;;;;;;5012654;28;20035;-39
2022/12/25 10:19:21;;;;;;;15.82;10.20;;;9.10;99.90;;;;;;5018523;28;20052;-38
2022/12/25 10:21:54;;;;;;;17.77;11.00;;;9.20;99.90;;;;;;5024211;28;20071;-37
2022/12/25 10:24:34;;;;;;;17.67;10.75;;;9.20;99.90;;;;;;5018502;28;20117;-38
2022/12/25 10:27:13;;;;;;;20.35;10.40;;;9.20;99.90;;;;;;5025069;28;20045;-37
2022/12/25 10:29:40;;;;;;;16.42;10.15;;;9.20;99.90;;;;;;5021296;28;20037;-37
2022/12/25 10:32:09;;;;;;;18.42;10.27;;;9.20;99.90;;;;;;5019109;28;20038;-38
2022/12/25 10:34:38;;;;;;;15.05;10.05;;;9.20;99.90;;;;;;5017490;28;20042;-38
2022/12/25 10:37:04;;;;;;;14.20;9.57;;;9.30;99.90;;;;;;5011386;28;20033;-37
2022/12/25 10:39:31;;;;;;;18.63;9.68;;;9.30;99.90;;;;;;5016033;28;20034;-37
2022/12/25 10:42:15;;;;;;;16.08;9.40;;;9.30;99.90;;;;;;5030900;28;20176;-37
2022/12/25 10:44:53;;;;;;;19.20;9.48;;;9.30;99.90;;;;;;5021432;28;20120;-38
2022/12/25 10:47:24;;;;;;;15.73;9.82;;;9.30;99.90;;;;;;5022195;28;20037;-38
2022/12/25 10:49:50;;;;;;;17.13;9.77;;;9.30;99.90;;;;;;5022902;28;20068;-38
2022/12/25 10:52:23;;;;;;;16.92;10.20;;;9.40;99.90;;;;;;5020836;28;20382;-38
2022/12/25 10:54:48;;;;;;;14.35;10.35;;;9.40;99.90;;;;;;5014477;28;20065;-38
2022/12/25 10:57:18;;;;;;;16.17;10.00;;;9.40;99.90;;;;;;5009650;28;20093;-38
2022/12/25 10:59:50;;;;;;;16.70;10.50;;;9.40;99.90;;;;;;5023221;28;20037;-45
2022/12/25 11:02:26;;;;;;;15.95;8.95;;;9.40;99.90;;;;;;5023135;28;20037;-38
2022/12/25 11:05:09;;;;;;;16.40;9.75;;;9.50;99.90;;;;;;5026313;28;20038;-38
2022/12/25 11:07:45;;;;;;;17.33;10.07;;;9.50;99.90;;;;;;5026082;28;20049;-38
2022/12/25 11:10:24;;;;;;;19.58;10.88;;;9.50;99.90;;;;;;5013904;28;20069;-38
2022/12/25 11:12:51;;;;;;;15.23;9.63;;;9.50;99.90;;;;;;5008864;28;20038;-38
2022/12/25 11:15:43;;;;;;;18.60;10.07;;;9.40;99.90;;;;;;5022066;28;20116;-39
2022/12/25 11:18:25;;;;;;;17.65;12.05;;;9.50;99.90;;;;;;5013805;28;20048;-38
2022/12/25 11:20:58;;;;;;;14.70;10.77;;;9.50;99.90;;;;;;5006926;28;20073;-39
2022/12/25 11:23:28;;;;;;;18.17;9.90;;;9.50;99.90;;;;;;5014004;28;20037;-39
2022/12/25 11:26:03;;;;;;;14.30;10.13;;;9.40;99.90;;;;;;5030601;22;20489;-37
2022/12/25 11:28:33;;;;;;;17.95;9.57;;;9.40;99.90;;;;;;5022462;28;20044;-37
2022/12/25 11:31:07;;;;;;;14.98;9.25;;;9.50;99.90;;;;;;4998286;28;20034;-37
2022/12/25 11:33:41;;;;;;;18.48;10.88;;;9.40;99.90;;;;;;5025417;28;20048;-37
2022/12/25 11:36:17;;;;;;;16.15;11.00;;;9.50;99.90;;;;;;5007274;28;20483;-35
2022/12/25 11:38:43;;;;;;;19.45;11.80;;;9.50;99.90;;;;;;5020698;28;20052;-37
2022/12/25 11:41:12;;;;;;;22.65;12.18;;;9.50;99.90;;;;;;5013633;28;20041;-34
2022/12/25 11:43:48;;;;;;;16.10;10.75;;;9.50;99.90;;;;;;5015455;28;20434;-35
2022/12/25 11:46:34;;;;;;;20.33;11.95;;;9.50;99.90;;;;;;5013937;28;20128;-35
2022/12/25 11:49:07;;;;;;;26.17;15.35;;;9.40;99.90;;;;;;5029066;28;20112;-36
2022/12/25 11:51:42;;;;;;;;;;;9.50;99.90;;;;;;4995369;28;20120;-36
2022/12/25 11:54:56;;;;;;;22.73;14.10;;;9.50;99.90;;;;;;5038741;28;19971;-36
2022/12/25 11:57:27;;;;;;;17.67;11.35;;;9.50;99.90;;;;;;4952388;28;20082;-37
2022/12/25 12:00:05;;;;;;;22.38;14.38;;;9.40;99.90;;;;;;4974872;28;20064;-38
2022/12/25 12:02:51;;;;;;;17.58;10.27;;;9.40;99.90;;;;;;5033808;28;20033;-36
2022/12/25 12:05:24;;;;;;;17.50;11.93;;;9.50;99.90;;;;;;5027784;28;20045;-36
2022/12/25 12:08:09;;;;;;;19.10;12.85;;;9.50;99.90;;;;;;5013479;28;20060;-36
2022/12/25 12:10:46;;;;;;;19.50;13.48;;;9.50;99.90;;;;;;5017096;28;20037;-38
2022/12/25 12:13:33;;;;;;;35.20;19.85;;;9.50;99.90;;;;;;5026757;28;20061;-36
2022/12/25 12:16:02;;;;;;;18.15;12.40;;;9.50;99.90;;;;;;5028848;28;20124;-38
2022/12/25 12:18:37;;;;;;;19.92;14.60;;;9.50;99.90;;;;;;5019741;28;20095;-38
2022/12/25 12:21:04;;;;;;;25.13;18.27;;;9.50;99.90;;;;;;5029246;28;20044;-36
2022/12/25 12:23:54;;;;;;;27.90;17.90;;;9.50;99.90;;;;;;5014181;28;20033;-38
2022/12/25 12:26:27;;;;;;;22.15;17.92;;;9.60;99.90;;;;;;5006085;28;21243;-37
2022/12/25 12:28:59;;;;;;;21.93;17.17;;;9.60;99.90;;;;;;5026979;28;20487;-37
2022/12/25 12:31:46;;;;;;;34.85;21.67;;;9.60;99.90;;;;;;5044669;28;20116;-36
2022/12/25 12:34:56;;;;;;;26.60;18.08;;;9.60;99.90;;;;;;5027099;28;20217;-35
2022/12/25 12:37:31;;;;;;;34.08;23.58;;;9.60;99.90;;;;;;4971915;28;20073;-43
2022/12/25 12:39:58;;;;;;;32.22;20.83;;;9.60;99.90;;;;;;5025035;28;20124;-36
2022/12/25 12:42:39;;;;;;;27.42;16.75;;;9.60;99.90;;;;;;5033977;28;20111;-36
2022/12/25 12:45:15;;;;;;;19.35;13.27;;;9.60;99.90;;;;;;5019995;28;20048;-38
2022/12/25 12:47:45;;;;;;;17.58;9.65;;;9.60;99.90;;;;;;5024622;28;20072;-36
2022/12/25 12:50:29;;;;;;;17.88;11.68;;;9.60;99.90;;;;;;5011065;28;20037;-35
2022/12/25 12:52:58;;;;;;;18.55;12.13;;;9.60;99.90;;;;;;5030902;28;20102;-43
2022/12/25 12:55:33;;;;;;;33.20;23.65;;;9.60;99.90;;;;;;5018638;28;20490;-36
2022/12/25 12:58:01;;;;;;;17.85;11.13;;;9.60;99.90;;;;;;5015561;28;20509;-36
2022/12/25 13:00:43;;;;;;;15.57;10.50;;;9.60;99.90;;;;;;5040053;28;20320;-36
2022/12/25 13:03:24;;;;;;;19.23;15.25;;;9.50;99.90;;;;;;5007115;28;20041;-36
2022/12/25 13:05:59;;;;;;;22.25;14.88;;;9.50;99.90;;;;;;5018329;28;20072;-36
2022/12/25 13:09:17;;;;;;;15.32;11.32;;;9.50;99.90;;;;;;5038412;28;20098;-36
2022/12/25 13:11:43;;;;;;;22.38;16.88;;;9.50;99.90;;;;;;5011632;28;20398;-36
2022/12/25 13:14:23;;;;;;;24.15;15.05;;;9.40;99.90;;;;;;5043419;28;20038;-36
2022/12/25 13:16:53;;;;;;;20.98;15.27;;;9.40;99.90;;;;;;5019561;28;20037;-36
2022/12/25 13:19:29;;;;;;;34.83;23.75;;;9.40;99.90;;;;;;5010049;28;20033;-37
2022/12/25 13:22:00;;;;;;;34.45;23.77;;;9.40;99.90;;;;;;5013599;28;20136;-37
2022/12/25 13:24:29;;;;;;;24.23;17.05;;;9.30;99.90;;;;;;5021257;28;20478;-37
2022/12/25 13:26:56;;;;;;;18.30;13.20;;;9.30;99.90;;;;;;5004067;28;20049;-37
2022/12/25 13:36:48;;;;;;;20.65;12.55;;;9.20;99.90;;;;;;5042555;28;20036;-37
2022/12/25 13:39:17;;;;;;;21.40;12.50;;;9.20;99.90;;;;;;5025386;28;20095;-37
2022/12/25 13:42:04;;;;;;;16.30;12.55;;;9.20;99.90;;;;;;5030015;28;20398;-37
2022/12/25 13:44:42;;;;;;;17.63;11.57;;;9.20;99.90;;;;;;5042851;28;20043;-37
2022/12/25 13:47:39;;;;;;;19.15;12.25;;;9.10;99.90;;;;;;5023549;28;20055;-36
2022/12/25 13:50:30;;;;;;;23.13;13.60;;;9.10;99.90;;;;;;5014775;28;20176;-37
2022/12/25 13:53:08;;;;;;;19.92;12.23;;;9.10;99.90;;;;;;5020207;28;20579;-36
2022/12/25 13:55:34;;;;;;;21.45;13.90;;;9.10;99.90;;;;;;5019408;28;20069;-37
2022/12/25 13:58:03;;;;;;;22.90;14.00;;;9.10;99.90;;;;;;5035148;28;20057;-37
2022/12/25 14:00:45;;;;;;;21.15;13.80;;;9.10;99.90;;;;;;5018076;28;20486;-37
2022/12/25 14:03:38;;;;;;;22.17;15.18;;;9.10;99.90;;;;;;5029915;28;20405;-36
2022/12/25 14:06:23;;;;;;;18.55;12.90;;;9.00;99.90;;;;;;5011823;28;20049;-37
2022/12/25 14:08:49;;;;;;;19.42;13.43;;;9.00;99.90;;;;;;5020119;28;20038;-36
2022/12/25 14:11:19;;;;;;;21.30;14.55;;;9.00;99.90;;;;;;5021441;28;20034;-36
2022/12/25 14:13:57;;;;;;;32.13;22.45;;;9.00;99.90;;;;;;5015248;28;20045;-36
2022/12/25 14:16:24;;;;;;;26.77;18.40;;;9.00;99.90;;;;;;5012695;28;20156;-37
2022/12/25 14:18:59;;;;;;;22.67;14.60;;;8.90;99.90;;;;;;5019398;28;20041;-37
2022/12/25 14:21:31;;;;;;;21.10;14.20;;;9.00;99.90;;;;;;5018835;28;20180;-37
2022/12/25 14:23:58;;;;;;;24.15;19.17;;;8.90;99.90;;;;;;5018104;28;20068;-36
2022/12/25 14:26:30;;;;;;;28.75;21.05;;;8.90;99.90;;;;;;5012591;28;20516;-37
2022/12/25 14:29:07;;;;;;;23.60;16.20;;;8.90;99.90;;;;;;5020209;28;20060;-37
2022/12/25 14:31:34;;;;;;;31.48;17.75;;;8.90;99.90;;;;;;5016811;28;20236;-37
2022/12/25 14:34:03;;;;;;;26.88;16.63;;;8.90;99.90;;;;;;5018995;28;20032;-37
2022/12/25 14:36:31;;;;;;;25.63;16.20;;;8.90;99.90;;;;;;5014665;28;20052;-37
2022/12/25 14:39:03;;;;;;;21.30;14.88;;;8.90;99.90;;;;;;5033626;28;20117;-37
2022/12/25 14:41:40;;;;;;;21.38;15.07;;;8.90;99.90;;;;;;5019396;28;20398;-36
2022/12/25 14:44:33;;;;;;;25.70;17.60;;;8.90;99.90;;;;;;5015342;28;20048;-36
2022/12/25 14:47:26;;;;;;;24.77;19.52;;;8.90;99.90;;;;;;5010600;28;20045;-36
2022/12/25 14:49:53;;;;;;;28.85;21.40;;;8.90;99.90;;;;;;5003240;28;20080;-36
2022/12/25 14:52:40;;;;;;;26.02;17.35;;;8.80;99.90;;;;;;5016820;28;20048;-36